sensor_id;sensor_type;location;lat;lon;timestamp;P1;durP1;ratioP1;P2;durP2;ratioP2
72939;SDS011;61094;51.154;13.570;2023-04-15T00:08:10;7.78;;;2.78;;
72939;SDS011;61094;51.154;13.570;2023-04-15T00:13:19;7.53;;;3.17;;
72939;SDS011;61094;51.154;13.570;2023-04-15T00:18:21;7.28;;;2.67;;
72939;SDS011;61094;51.154;13.570;2023-04-15T00:28:35;7.85;;;3.63;;
72939;SDS011;61094;51.154;13.570;2023-04-15T00:33:37;8.95;;;3.63;;
72939;SDS011;61094;51.154;13.570;2023-04-15T00:38:40;7.43;;;3.40;;
72939;SDS011;61094;51.154;13.570;2023-04-15T00:43:42;8.13;;;3.25;;
72939;SDS011;61094;51.154;13.570;2023-04-15T00:48:44;9.40;;;3.70;;
72939;SDS011;61094;51.154;13.570;2023-04-15T00:53:48;7.63;;;3.45;;
72939;SDS011;61094;51.154;13.570;2023-04-15T00:58:51;6.72;;;2.83;;
72939;SDS011;61094;51.154;13.570;2023-04-15T01:03:53;7.15;;;2.70;;
72939;SDS011;61094;51.154;13.570;2023-04-15T01:08:58;8.10;;;3.10;;
72939;SDS011;61094;51.154;13.570;2023-04-15T01:14:00;9.20;;;3.30;;
72939;SDS011;61094;51.154;13.570;2023-04-15T01:19:03;9.32;;;3.92;;
72939;SDS011;61094;51.154;13.570;2023-04-15T01:24:08;8.40;;;3.47;;
72939;SDS011;61094;51.154;13.570;2023-04-15T01:29:12;9.38;;;3.47;;
72939;SDS011;61094;51.154;13.570;2023-04-15T01:34:14;7.38;;;3.38;;
72939;SDS011;61094;51.154;13.570;2023-04-15T01:39:16;7.95;;;3.75;;
72939;SDS011;61094;51.154;13.570;2023-04-15T01:44:19;7.10;;;2.45;;
72939;SDS011;61094;51.154;13.570;2023-04-15T01:49:21;6.90;;;2.92;;
72939;SDS011;61094;51.154;13.570;2023-04-15T01:54:26;7.28;;;3.13;;
72939;SDS011;61094;51.154;13.570;2023-04-15T01:59:29;6.13;;;2.38;;
72939;SDS011;61094;51.154;13.570;2023-04-15T02:04:32;6.97;;;2.30;;
72939;SDS011;61094;51.154;13.570;2023-04-15T02:09:34;7.40;;;2.70;;
72939;SDS011;61094;51.154;13.570;2023-04-15T02:14:37;7.38;;;2.88;;
72939;SDS011;61094;51.154;13.570;2023-04-15T02:19:39;6.80;;;3.00;;
72939;SDS011;61094;51.154;13.570;2023-04-15T02:24:41;8.27;;;3.35;;
72939;SDS011;61094;51.154;13.570;2023-04-15T02:29:45;5.68;;;2.40;;
72939;SDS011;61094;51.154;13.570;2023-04-15T02:34:46;6.75;;;2.83;;
72939;SDS011;61094;51.154;13.570;2023-04-15T02:39:48;7.85;;;2.95;;
72939;SDS011;61094;51.154;13.570;2023-04-15T02:44:53;9.15;;;2.58;;
72939;SDS011;61094;51.154;13.570;2023-04-15T02:50:01;6.75;;;2.70;;
72939;SDS011;61094;51.154;13.570;2023-04-15T02:55:05;7.50;;;2.70;;
72939;SDS011;61094;51.154;13.570;2023-04-15T03:00:11;7.30;;;2.72;;
72939;SDS011;61094;51.154;13.570;2023-04-15T03:05:16;6.38;;;2.22;;
72939;SDS011;61094;51.154;13.570;2023-04-15T03:10:22;7.30;;;3.03;;
72939;SDS011;61094;51.154;13.570;2023-04-15T03:15:26;8.73;;;3.25;;
72939;SDS011;61094;51.154;13.570;2023-04-15T03:20:28;7.90;;;3.30;;
72939;SDS011;61094;51.154;13.570;2023-04-15T03:25:30;9.63;;;3.40;;
72939;SDS011;61094;51.154;13.570;2023-04-15T03:30:35;7.63;;;2.72;;
72939;SDS011;61094;51.154;13.570;2023-04-15T03:35:37;8.13;;;3.28;;
72939;SDS011;61094;51.154;13.570;2023-04-15T03:40:39;6.57;;;2.72;;
72939;SDS011;61094;51.154;13.570;2023-04-15T03:45:49;7.00;;;2.50;;
72939;SDS011;61094;51.154;13.570;2023-04-15T03:50:50;8.32;;;3.50;;
72939;SDS011;61094;51.154;13.570;2023-04-15T03:55:52;8.93;;;3.17;;
72939;SDS011;61094;51.154;13.570;2023-04-15T04:00:55;9.45;;;3.20;;
72939;SDS011;61094;51.154;13.570;2023-04-15T04:05:57;9.75;;;3.42;;
72939;SDS011;61094;51.154;13.570;2023-04-15T04:10:59;8.65;;;3.03;;
72939;SDS011;61094;51.154;13.570;2023-04-15T04:16:10;9.30;;;3.90;;
72939;SDS011;61094;51.154;13.570;2023-04-15T04:21:11;10.18;;;3.92;;
72939;SDS011;61094;51.154;13.570;2023-04-15T04:26:13;9.65;;;4.10;;
72939;SDS011;61094;51.154;13.570;2023-04-15T04:31:16;10.85;;;4.38;;
72939;SDS011;61094;51.154;13.570;2023-04-15T04:36:18;11.27;;;4.13;;
72939;SDS011;61094;51.154;13.570;2023-04-15T04:41:20;9.70;;;3.97;;
72939;SDS011;61094;51.154;13.570;2023-04-15T04:46:23;13.73;;;5.57;;
72939;SDS011;61094;51.154;13.570;2023-04-15T04:51:25;11.60;;;5.18;;
72939;SDS011;61094;51.154;13.570;2023-04-15T04:56:26;12.57;;;4.78;;
72939;SDS011;61094;51.154;13.570;2023-04-15T05:01:30;11.43;;;4.75;;
72939;SDS011;61094;51.154;13.570;2023-04-15T05:06:31;11.13;;;4.70;;
72939;SDS011;61094;51.154;13.570;2023-04-15T05:11:35;14.00;;;5.40;;
72939;SDS011;61094;51.154;13.570;2023-04-15T05:16:38;13.48;;;4.55;;
72939;SDS011;61094;51.154;13.570;2023-04-15T05:21:40;16.38;;;8.18;;
72939;SDS011;61094;51.154;13.570;2023-04-15T05:26:42;14.25;;;5.25;;
72939;SDS011;61094;51.154;13.570;2023-04-15T05:31:45;13.10;;;5.65;;
72939;SDS011;61094;51.154;13.570;2023-04-15T05:36:47;13.13;;;5.05;;
72939;SDS011;61094;51.154;13.570;2023-04-15T05:41:50;14.13;;;5.65;;
72939;SDS011;61094;51.154;13.570;2023-04-15T05:46:53;14.00;;;5.00;;
72939;SDS011;61094;51.154;13.570;2023-04-15T05:51:55;14.15;;;4.95;;
72939;SDS011;61094;51.154;13.570;2023-04-15T05:56:57;15.38;;;6.82;;
72939;SDS011;61094;51.154;13.570;2023-04-15T06:02:00;14.63;;;5.32;;
72939;SDS011;61094;51.154;13.570;2023-04-15T06:07:02;14.07;;;5.53;;
72939;SDS011;61094;51.154;13.570;2023-04-15T06:12:04;15.93;;;6.35;;
72939;SDS011;61094;51.154;13.570;2023-04-15T06:17:12;14.75;;;5.22;;
72939;SDS011;61094;51.154;13.570;2023-04-15T06:22:17;13.63;;;5.80;;
72939;SDS011;61094;51.154;13.570;2023-04-15T06:27:19;16.27;;;4.90;;
72939;SDS011;61094;51.154;13.570;2023-04-15T06:32:23;15.57;;;6.43;;
72939;SDS011;61094;51.154;13.570;2023-04-15T06:37:25;14.18;;;5.85;;
72939;SDS011;61094;51.154;13.570;2023-04-15T06:42:26;16.55;;;5.13;;
72939;SDS011;61094;51.154;13.570;2023-04-15T06:47:30;10.57;;;3.72;;
72939;SDS011;61094;51.154;13.570;2023-04-15T06:52:34;11.77;;;4.47;;
72939;SDS011;61094;51.154;13.570;2023-04-15T06:57:41;10.50;;;3.40;;
72939;SDS011;61094;51.154;13.570;2023-04-15T07:02:44;7.07;;;2.65;;
72939;SDS011;61094;51.154;13.570;2023-04-15T07:07:46;6.78;;;2.50;;
72939;SDS011;61094;51.154;13.570;2023-04-15T07:12:49;3.92;;;1.33;;
72939;SDS011;61094;51.154;13.570;2023-04-15T07:17:53;4.78;;;1.60;;
72939;SDS011;61094;51.154;13.570;2023-04-15T07:22:55;6.80;;;2.08;;
72939;SDS011;61094;51.154;13.570;2023-04-15T07:27:57;5.45;;;2.08;;
72939;SDS011;61094;51.154;13.570;2023-04-15T07:33:00;6.53;;;2.08;;
72939;SDS011;61094;51.154;13.570;2023-04-15T07:38:02;8.32;;;3.42;;
72939;SDS011;61094;51.154;13.570;2023-04-15T07:43:04;4.63;;;0.90;;
72939;SDS011;61094;51.154;13.570;2023-04-15T07:48:07;3.53;;;1.02;;
72939;SDS011;61094;51.154;13.570;2023-04-15T07:53:09;3.20;;;0.90;;
72939;SDS011;61094;51.154;13.570;2023-04-15T07:58:11;5.20;;;1.50;;
72939;SDS011;61094;51.154;13.570;2023-04-15T08:03:14;3.08;;;0.90;;
72939;SDS011;61094;51.154;13.570;2023-04-15T08:08:16;9.23;;;3.00;;
72939;SDS011;61094;51.154;13.570;2023-04-15T08:13:18;3.00;;;0.98;;
72939;SDS011;61094;51.154;13.570;2023-04-15T08:18:22;2.90;;;0.80;;
72939;SDS011;61094;51.154;13.570;2023-04-15T08:23:24;9.32;;;2.60;;
72939;SDS011;61094;51.154;13.570;2023-04-15T08:28:25;3.65;;;0.80;;
72939;SDS011;61094;51.154;13.570;2023-04-15T08:33:29;7.28;;;1.95;;
72939;SDS011;61094;51.154;13.570;2023-04-15T08:38:31;2.90;;;0.80;;
72939;SDS011;61094;51.154;13.570;2023-04-15T08:43:33;3.75;;;0.88;;
72939;SDS011;61094;51.154;13.570;2023-04-15T08:48:38;5.25;;;1.45;;
72939;SDS011;61094;51.154;13.570;2023-04-15T08:53:40;2.55;;;0.90;;
72939;SDS011;61094;51.154;13.570;2023-04-15T08:58:43;5.05;;;1.08;;
72939;SDS011;61094;51.154;13.570;2023-04-15T09:03:48;2.22;;;0.70;;
72939;SDS011;61094;51.154;13.570;2023-04-15T09:08:50;3.85;;;0.80;;
72939;SDS011;61094;51.154;13.570;2023-04-15T09:13:52;5.20;;;1.30;;
72939;SDS011;61094;51.154;13.570;2023-04-15T09:18:55;2.72;;;0.80;;
72939;SDS011;61094;51.154;13.570;2023-04-15T09:23:58;3.67;;;0.82;;
72939;SDS011;61094;51.154;13.570;2023-04-15T09:29:02;2.08;;;0.73;;
72939;SDS011;61094;51.154;13.570;2023-04-15T09:34:07;3.03;;;1.08;;
72939;SDS011;61094;51.154;13.570;2023-04-15T09:39:09;2.90;;;0.90;;
72939;SDS011;61094;51.154;13.570;2023-04-15T09:44:20;2.80;;;0.77;;
72939;SDS011;61094;51.154;13.570;2023-04-15T09:49:24;5.53;;;1.70;;
72939;SDS011;61094;51.154;13.570;2023-04-15T09:54:33;3.22;;;0.70;;
72939;SDS011;61094;51.154;13.570;2023-04-15T09:59:37;3.03;;;0.75;;
72939;SDS011;61094;51.154;13.570;2023-04-15T10:04:41;2.03;;;0.60;;
72939;SDS011;61094;51.154;13.570;2023-04-15T10:09:44;2.13;;;0.60;;
72939;SDS011;61094;51.154;13.570;2023-04-15T10:14:47;1.70;;;0.43;;
72939;SDS011;61094;51.154;13.570;2023-04-15T10:19:54;12.90;;;4.82;;
72939;SDS011;61094;51.154;13.570;2023-04-15T10:29:59;7.05;;;2.67;;
72939;SDS011;61094;51.154;13.570;2023-04-15T10:35:03;7.25;;;2.78;;
72939;SDS011;61094;51.154;13.570;2023-04-15T10:40:28;6.60;;;2.75;;
72939;SDS011;61094;51.154;13.570;2023-04-15T10:45:32;6.43;;;3.08;;
72939;SDS011;61094;51.154;13.570;2023-04-15T10:50:37;7.43;;;3.30;;
72939;SDS011;61094;51.154;13.570;2023-04-15T10:55:39;7.35;;;3.25;;
72939;SDS011;61094;51.154;13.570;2023-04-15T11:00:43;8.82;;;3.83;;
72939;SDS011;61094;51.154;13.570;2023-04-15T11:05:53;7.30;;;3.50;;
72939;SDS011;61094;51.154;13.570;2023-04-15T11:10:56;8.43;;;3.55;;
72939;SDS011;61094;51.154;13.570;2023-04-15T11:15:58;7.47;;;3.42;;
72939;SDS011;61094;51.154;13.570;2023-04-15T11:21:09;9.55;;;3.72;;
72939;SDS011;61094;51.154;13.570;2023-04-15T11:26:12;6.20;;;2.67;;
72939;SDS011;61094;51.154;13.570;2023-04-15T11:31:15;7.70;;;3.75;;
72939;SDS011;61094;51.154;13.570;2023-04-15T11:36:18;9.25;;;3.78;;
72939;SDS011;61094;51.154;13.570;2023-04-15T11:41:21;8.52;;;3.67;;
72939;SDS011;61094;51.154;13.570;2023-04-15T11:46:28;8.48;;;3.50;;
72939;SDS011;61094;51.154;13.570;2023-04-15T11:51:32;9.23;;;3.88;;
72939;SDS011;61094;51.154;13.570;2023-04-15T11:56:35;9.57;;;4.50;;
72939;SDS011;61094;51.154;13.570;2023-04-15T12:01:38;7.07;;;3.58;;
72939;SDS011;61094;51.154;13.570;2023-04-15T12:06:44;7.50;;;3.25;;
72939;SDS011;61094;51.154;13.570;2023-04-15T12:11:47;7.75;;;3.38;;
72939;SDS011;61094;51.154;13.570;2023-04-15T12:16:50;7.93;;;3.33;;
72939;SDS011;61094;51.154;13.570;2023-04-15T12:21:57;7.18;;;3.42;;
72939;SDS011;61094;51.154;13.570;2023-04-15T12:27:11;7.68;;;3.10;;
72939;SDS011;61094;51.154;13.570;2023-04-15T12:32:17;8.13;;;2.42;;
72939;SDS011;61094;51.154;13.570;2023-04-15T12:37:24;6.40;;;2.72;;
72939;SDS011;61094;51.154;13.570;2023-04-15T12:47:27;5.78;;;2.15;;
72939;SDS011;61094;51.154;13.570;2023-04-15T12:52:31;6.03;;;2.70;;
72939;SDS011;61094;51.154;13.570;2023-04-15T12:57:32;8.55;;;2.88;;
72939;SDS011;61094;51.154;13.570;2023-04-15T13:02:34;7.75;;;2.80;;
72939;SDS011;61094;51.154;13.570;2023-04-15T13:07:38;8.13;;;2.58;;
72939;SDS011;61094;51.154;13.570;2023-04-15T13:12:42;3.75;;;1.42;;
72939;SDS011;61094;51.154;13.570;2023-04-15T13:17:46;5.97;;;2.15;;
72939;SDS011;61094;51.154;13.570;2023-04-15T13:22:49;4.60;;;1.92;;
72939;SDS011;61094;51.154;13.570;2023-04-15T13:27:53;5.15;;;1.80;;
72939;SDS011;61094;51.154;13.570;2023-04-15T13:32:54;4.82;;;1.95;;
72939;SDS011;61094;51.154;13.570;2023-04-15T13:37:57;6.95;;;2.63;;
72939;SDS011;61094;51.154;13.570;2023-04-15T13:42:59;7.30;;;3.05;;
72939;SDS011;61094;51.154;13.570;2023-04-15T13:48:02;6.57;;;2.65;;
72939;SDS011;61094;51.154;13.570;2023-04-15T13:53:07;6.75;;;2.22;;
72939;SDS011;61094;51.154;13.570;2023-04-15T13:58:09;5.07;;;1.80;;
72939;SDS011;61094;51.154;13.570;2023-04-15T14:03:12;12.48;;;5.40;;
72939;SDS011;61094;51.154;13.570;2023-04-15T14:08:31;6.10;;;2.28;;
72939;SDS011;61094;51.154;13.570;2023-04-15T14:13:34;7.72;;;2.22;;
72939;SDS011;61094;51.154;13.570;2023-04-15T14:18:37;4.90;;;1.98;;
72939;SDS011;61094;51.154;13.570;2023-04-15T14:23:41;5.25;;;2.17;;
72939;SDS011;61094;51.154;13.570;2023-04-15T14:28:44;5.32;;;2.10;;
72939;SDS011;61094;51.154;13.570;2023-04-15T14:33:48;5.53;;;2.55;;
72939;SDS011;61094;51.154;13.570;2023-04-15T14:38:54;34.58;;;16.35;;
72939;SDS011;61094;51.154;13.570;2023-04-15T14:43:56;5.55;;;1.80;;
72939;SDS011;61094;51.154;13.570;2023-04-15T14:48:58;7.50;;;2.28;;
72939;SDS011;61094;51.154;13.570;2023-04-15T15:00:02;8.40;;;1.83;;
72939;SDS011;61094;51.154;13.570;2023-04-15T15:05:06;5.03;;;2.13;;
72939;SDS011;61094;51.154;13.570;2023-04-15T15:10:15;18.05;;;7.95;;
72939;SDS011;61094;51.154;13.570;2023-04-15T15:15:39;5.63;;;2.15;;
72939;SDS011;61094;51.154;13.570;2023-04-15T15:20:42;5.57;;;1.60;;
72939;SDS011;61094;51.154;13.570;2023-04-15T15:30:53;5.18;;;2.15;;
72939;SDS011;61094;51.154;13.570;2023-04-15T15:35:56;6.00;;;1.88;;
72939;SDS011;61094;51.154;13.570;2023-04-15T15:40:58;6.03;;;2.13;;
72939;SDS011;61094;51.154;13.570;2023-04-15T15:46:02;6.07;;;2.13;;
72939;SDS011;61094;51.154;13.570;2023-04-15T15:51:07;5.07;;;1.67;;
72939;SDS011;61094;51.154;13.570;2023-04-15T15:56:12;7.10;;;2.05;;
72939;SDS011;61094;51.154;13.570;2023-04-15T16:01:15;37.90;;;14.85;;
72939;SDS011;61094;51.154;13.570;2023-04-15T16:19:18;6.22;;;2.45;;
72939;SDS011;61094;51.154;13.570;2023-04-15T16:24:27;6.65;;;2.58;;
72939;SDS011;61094;51.154;13.570;2023-04-15T16:29:30;7.63;;;2.20;;
72939;SDS011;61094;51.154;13.570;2023-04-15T16:34:34;6.97;;;2.65;;
72939;SDS011;61094;51.154;13.570;2023-04-15T16:39:38;7.80;;;2.67;;
72939;SDS011;61094;51.154;13.570;2023-04-15T16:50:32;9.73;;;3.33;;
72939;SDS011;61094;51.154;13.570;2023-04-15T16:55:36;8.07;;;2.25;;
72939;SDS011;61094;51.154;13.570;2023-04-15T17:00:40;6.13;;;2.10;;
72939;SDS011;61094;51.154;13.570;2023-04-15T17:05:43;5.78;;;2.10;;
72939;SDS011;61094;51.154;13.570;2023-04-15T17:15:52;54.80;;;28.10;;
72939;SDS011;61094;51.154;13.570;2023-04-15T17:21:01;50.65;;;20.80;;
72939;SDS011;61094;51.154;13.570;2023-04-15T17:26:05;7.20;;;2.70;;
72939;SDS011;61094;51.154;13.570;2023-04-15T17:31:07;5.80;;;2.38;;
72939;SDS011;61094;51.154;13.570;2023-04-15T17:36:11;9.07;;;3.10;;
72939;SDS011;61094;51.154;13.570;2023-04-15T17:51:19;10.90;;;4.78;;
72939;SDS011;61094;51.154;13.570;2023-04-15T17:56:21;12.27;;;4.85;;
72939;SDS011;61094;51.154;13.570;2023-04-15T18:01:24;12.27;;;4.88;;
72939;SDS011;61094;51.154;13.570;2023-04-15T18:06:27;12.43;;;5.60;;
72939;SDS011;61094;51.154;13.570;2023-04-15T18:11:29;15.70;;;5.00;;
72939;SDS011;61094;51.154;13.570;2023-04-15T18:16:32;9.35;;;3.92;;
72939;SDS011;61094;51.154;13.570;2023-04-15T18:21:35;10.48;;;4.63;;
72939;SDS011;61094;51.154;13.570;2023-04-15T18:26:37;11.07;;;5.03;;
72939;SDS011;61094;51.154;13.570;2023-04-15T18:31:39;14.30;;;5.90;;
72939;SDS011;61094;51.154;13.570;2023-04-15T18:36:42;28.10;;;9.25;;
72939;SDS011;61094;51.154;13.570;2023-04-15T18:41:45;34.58;;;12.23;;
72939;SDS011;61094;51.154;13.570;2023-04-15T18:46:47;46.45;;;13.10;;
72939;SDS011;61094;51.154;13.570;2023-04-15T18:51:50;46.35;;;14.05;;
72939;SDS011;61094;51.154;13.570;2023-04-15T18:56:57;34.25;;;10.88;;
72939;SDS011;61094;51.154;13.570;2023-04-15T19:01:59;29.67;;;9.40;;
72939;SDS011;61094;51.154;13.570;2023-04-15T19:07:03;31.02;;;10.98;;
72939;SDS011;61094;51.154;13.570;2023-04-15T19:12:06;22.85;;;8.57;;
72939;SDS011;61094;51.154;13.570;2023-04-15T19:17:08;22.95;;;8.30;;
72939;SDS011;61094;51.154;13.570;2023-04-15T19:22:11;15.68;;;7.05;;
72939;SDS011;61094;51.154;13.570;2023-04-15T19:27:18;12.25;;;6.10;;
72939;SDS011;61094;51.154;13.570;2023-04-15T19:32:25;13.52;;;6.07;;
72939;SDS011;61094;51.154;13.570;2023-04-15T19:42:32;14.70;;;6.78;;
72939;SDS011;61094;51.154;13.570;2023-04-15T19:47:34;15.25;;;7.63;;
72939;SDS011;61094;51.154;13.570;2023-04-15T19:52:38;18.65;;;8.32;;
72939;SDS011;61094;51.154;13.570;2023-04-15T19:57:44;18.25;;;8.98;;
72939;SDS011;61094;51.154;13.570;2023-04-15T20:02:46;22.13;;;8.93;;
72939;SDS011;61094;51.154;13.570;2023-04-15T20:07:51;40.50;;;16.05;;
72939;SDS011;61094;51.154;13.570;2023-04-15T20:12:53;36.75;;;15.00;;
72939;SDS011;61094;51.154;13.570;2023-04-15T20:17:55;26.63;;;11.60;;
72939;SDS011;61094;51.154;13.570;2023-04-15T20:22:58;53.38;;;17.98;;
72939;SDS011;61094;51.154;13.570;2023-04-15T20:28:00;36.40;;;16.20;;
72939;SDS011;61094;51.154;13.570;2023-04-15T20:33:02;27.77;;;10.98;;
72939;SDS011;61094;51.154;13.570;2023-04-15T20:38:05;23.05;;;10.13;;
72939;SDS011;61094;51.154;13.570;2023-04-15T20:43:26;19.25;;;8.55;;
72939;SDS011;61094;51.154;13.570;2023-04-15T20:48:41;19.52;;;8.27;;
72939;SDS011;61094;51.154;13.570;2023-04-15T20:53:50;17.52;;;8.65;;
72939;SDS011;61094;51.154;13.570;2023-04-15T21:03:53;15.10;;;7.45;;
72939;SDS011;61094;51.154;13.570;2023-04-15T21:08:56;14.70;;;7.70;;
72939;SDS011;61094;51.154;13.570;2023-04-15T21:13:58;17.90;;;7.88;;
72939;SDS011;61094;51.154;13.570;2023-04-15T21:19:00;16.92;;;7.32;;
72939;SDS011;61094;51.154;13.570;2023-04-15T21:24:03;15.02;;;7.65;;
72939;SDS011;61094;51.154;13.570;2023-04-15T21:29:06;18.13;;;7.90;;
72939;SDS011;61094;51.154;13.570;2023-04-15T21:34:09;16.92;;;7.93;;
72939;SDS011;61094;51.154;13.570;2023-04-15T21:39:12;18.00;;;7.97;;
72939;SDS011;61094;51.154;13.570;2023-04-15T21:44:14;19.52;;;7.85;;
72939;SDS011;61094;51.154;13.570;2023-04-15T21:49:15;16.92;;;6.78;;
72939;SDS011;61094;51.154;13.570;2023-04-15T21:54:20;16.88;;;7.47;;
72939;SDS011;61094;51.154;13.570;2023-04-15T21:59:22;20.02;;;8.02;;
72939;SDS011;61094;51.154;13.570;2023-04-15T22:04:24;14.43;;;6.65;;
72939;SDS011;61094;51.154;13.570;2023-04-15T22:09:27;16.98;;;7.93;;
72939;SDS011;61094;51.154;13.570;2023-04-15T22:14:28;13.27;;;7.20;;
72939;SDS011;61094;51.154;13.570;2023-04-15T22:19:30;15.70;;;6.65;;
72939;SDS011;61094;51.154;13.570;2023-04-15T22:24:33;10.93;;;5.88;;
72939;SDS011;61094;51.154;13.570;2023-04-15T22:29:35;12.70;;;6.57;;
72939;SDS011;61094;51.154;13.570;2023-04-15T22:34:37;16.42;;;6.43;;
72939;SDS011;61094;51.154;13.570;2023-04-15T22:39:40;16.88;;;7.50;;
72939;SDS011;61094;51.154;13.570;2023-04-15T22:44:41;14.18;;;6.75;;
72939;SDS011;61094;51.154;13.570;2023-04-15T22:49:43;11.13;;;5.78;;
72939;SDS011;61094;51.154;13.570;2023-04-15T22:54:46;15.77;;;6.75;;
72939;SDS011;61094;51.154;13.570;2023-04-15T22:59:48;13.30;;;6.35;;
72939;SDS011;61094;51.154;13.570;2023-04-15T23:04:50;10.35;;;5.22;;
72939;SDS011;61094;51.154;13.570;2023-04-15T23:09:53;12.82;;;5.95;;
72939;SDS011;61094;51.154;13.570;2023-04-15T23:14:54;13.27;;;5.75;;
72939;SDS011;61094;51.154;13.570;2023-04-15T23:19:56;13.73;;;5.82;;
72939;SDS011;61094;51.154;13.570;2023-04-15T23:24:59;12.02;;;6.03;;
72939;SDS011;61094;51.154;13.570;2023-04-15T23:30:01;12.38;;;5.82;;
72939;SDS011;61094;51.154;13.570;2023-04-15T23:35:03;12.18;;;6.30;;
72939;SDS011;61094;51.154;13.570;2023-04-15T23:40:07;12.18;;;5.82;;
72939;SDS011;61094;51.154;13.570;2023-04-15T23:45:10;11.85;;;6.57;;
72939;SDS011;61094;51.154;13.570;2023-04-15T23:50:12;11.60;;;5.97;;
72939;SDS011;61094;51.154;13.570;2023-04-15T23:55:15;12.82;;;6.28;;
